Home   Weather   Croatia   Dubrovnik   Past weeks
Flag for Croatia

Past Weather in Dubrovnik, Croatia — Yesterday and Last 2 Weeks

Currently: 54 °F. Passing clouds. (Weather station: Dubrovnik / Cilipi, Croatia). See more current weather

Past Weather in Dubrovnik — Graph

°F

Dubrovnik Temperature Yesterday

Maximum temperature yesterday: 59 °F (at 1:30 pm)
Minimum temperature yesterday: 52 °F (at 1:00 am)
Average temperature yesterday: 55 °F

High & Low Weather Summary for the Past Weeks

 TemperatureHumidityPressure
High70 °F (Feb 29, 10:30 am)100% (Feb 24, 2:30 pm)30.39 "Hg (Feb 24, 2:30 pm)
Low39 °F (Feb 17, 4:30 am)29% (Feb 21, 10:30 am)29.74 "Hg (Feb 26, 4:30 am)
Average55 °F67%30.01 "Hg
* Reported Feb 16 9:00 pm — Mar 2 9:00 pm, Dubrovnik. Weather by CustomWeather, © 2024

Note: Actual official high and low records may vary slightly from our data, if they occured in-between our weather recording intervals... More about our weather records

Dubrovnik Weather History for the Previous 24 Hours

Scroll right to see more
 ConditionsComfort  
Time TempWeatherWind HumidityBarometerVisibility
9:00 pm
Sat, Mar 2
52 °FClear.8 mph77%29.92 "Hg10 mi
8:30 pm54 °FPassing clouds.9 mph72%29.92 "HgN/A
8:00 pm52 °FClear.8 mph82%29.92 "Hg10 mi
7:30 pm52 °FClear.9 mph82%29.92 "Hg10 mi
7:00 pm52 °FClear.10 mph82%29.92 "Hg10 mi
6:30 pm52 °FClear.7 mph82%29.92 "Hg10 mi
6:00 pm54 °FClear.8 mph82%29.92 "Hg10 mi
5:30 pm55 °FPassing clouds.10 mph77%29.89 "HgN/A
5:00 pm55 °FPassing clouds.14 mph77%29.89 "HgN/A
4:30 pm55 °FPassing clouds.13 mph77%29.89 "HgN/A
4:00 pm57 °FPassing clouds.15 mph63%29.89 "HgN/A
3:30 pm57 °FPassing clouds.13 mph67%29.89 "HgN/A
3:00 pm59 °FPassing clouds.14 mph63%29.89 "HgN/A
2:30 pm57 °FPassing clouds.16 mph72%29.89 "HgN/A
2:00 pm59 °FPassing clouds.12 mph63%29.89 "HgN/A
1:30 pm59 °FPassing clouds.14 mph59%29.89 "HgN/A
1:00 pm59 °FPassing clouds.14 mph63%29.89 "HgN/A
12:30 pm59 °FPassing clouds.14 mph59%29.89 "HgN/A
12:00 pm59 °FPassing clouds.12 mph63%29.89 "HgN/A
11:30 am57 °FScattered clouds.13 mph67%29.89 "HgN/A
11:00 am55 °FPartly sunny.15 mph67%29.89 "HgN/A
10:30 am55 °FScattered clouds.12 mph67%29.89 "HgN/A
10:00 am57 °FScattered clouds.7 mph59%29.89 "HgN/A
9:30 am57 °FPassing clouds.5 mph67%29.89 "HgN/A
9:00 am54 °FPassing clouds.5 mph77%29.86 "HgN/A
8:30 am54 °FPassing clouds.7 mph72%29.86 "HgN/A
8:00 am50 °FPassing clouds.7 mph76%29.86 "HgN/A
7:30 am50 °FPassing clouds.9 mph82%29.83 "HgN/A
7:00 am50 °FScattered clouds.9 mph76%29.83 "HgN/A
6:30 am50 °FPassing clouds.9 mph82%29.83 "HgN/A
6:00 am48 °FPassing clouds.8 mph87%29.83 "HgN/A
5:30 am48 °FPassing clouds.9 mph94%29.83 "HgN/A
5:00 am48 °FPassing clouds.7 mph94%29.83 "HgN/A
4:30 am48 °FPassing clouds.10 mph94%29.83 "HgN/A
4:00 am50 °FLight rain. Passing clouds.9 mph88%29.83 "HgN/A
3:30 am52 °FClear.9 mph77%29.80 "Hg10 mi
3:00 am50 °FPassing clouds.10 mph82%29.80 "HgN/A
2:30 am52 °FClear.9 mph72%29.80 "Hg10 mi
2:00 am54 °FClear.7 mph67%29.83 "Hg10 mi
1:30 am54 °FClear.6 mph63%29.83 "Hg10 mi
1:00 am52 °FClear.7 mph67%29.83 "Hg10 mi
12:30 am52 °FClear.6 mph67%29.80 "Hg10 mi
12:00 am52 °FClear.7 mph67%29.80 "Hg10 mi
11:30 pm
Fri, Mar 1
52 °FClear.7 mph67%29.80 "Hg10 mi
11:00 pm52 °FClear.7 mph67%29.80 "Hg10 mi
10:30 pm52 °FClear.6 mph72%29.83 "Hg10 mi
10:00 pm54 °FClear.7 mph63%29.83 "Hg10 mi
Weather by CustomWeather, © 2024

See weather overview